createdAt,value
2023-01-01T00:01:45.746Z,82.00
2023-01-01T00:04:14.698Z,76.40
2023-01-01T00:06:42.497Z,68.07
2023-01-01T00:09:28.801Z,72.30
2023-01-01T00:11:56.060Z,58.08
2023-01-01T00:14:23.343Z,60.58
2023-01-01T00:16:50.733Z,59.80
2023-01-01T00:19:18.059Z,53.85
2023-01-01T00:21:46.488Z,85.63
2023-01-01T00:24:13.803Z,62.20
2023-01-01T00:26:41.046Z,55.33
2023-01-01T00:29:08.292Z,47.15
2023-01-01T00:31:35.603Z,48.10
2023-01-01T00:34:02.869Z,46.85
2023-01-01T00:36:30.959Z,44.55
2023-01-01T00:38:58.193Z,34.80
2023-01-01T00:41:25.723Z,36.15
2023-01-01T00:43:52.984Z,37.28
2023-01-01T00:46:20.274Z,49.85
2023-01-01T00:48:47.531Z,55.47
2023-01-01T00:51:14.847Z,35.15
2023-01-01T00:53:42.131Z,43.53
2023-01-01T00:56:09.424Z,26.35
2023-01-01T00:58:36.797Z,24.13
2023-01-01T01:01:04.825Z,31.85
2023-01-01T01:03:32.281Z,30.88
2023-01-01T01:06:05.697Z,26.67
2023-01-01T01:08:33.998Z,27.45
2023-01-01T01:11:07.346Z,25.27
2023-01-01T01:13:35.016Z,22.10
2023-01-01T01:16:02.879Z,23.45
2023-01-01T01:18:30.080Z,24.23
2023-01-01T01:20:57.394Z,26.90
2023-01-01T01:23:24.604Z,20.25
2023-01-01T01:25:51.973Z,25.77
2023-01-01T01:28:19.272Z,18.63
2023-01-01T01:30:46.586Z,19.23
2023-01-01T01:33:13.873Z,21.38
2023-01-01T01:35:41.150Z,23.10
2023-01-01T01:38:08.450Z,19.30
2023-01-01T01:40:35.666Z,15.93
2023-01-01T01:43:02.954Z,15.43
2023-01-01T01:45:33.451Z,15.35
2023-01-01T01:48:01.471Z,16.42
2023-01-01T01:50:33.536Z,12.65
2023-01-01T01:53:11.624Z,13.80
2023-01-01T01:55:41.553Z,13.00
2023-01-01T01:58:10.719Z,9.10
2023-01-01T02:00:38.075Z,12.85
2023-01-01T02:03:08.081Z,12.68
2023-01-01T02:05:36.124Z,10.75
2023-01-01T02:08:07.041Z,10.60
2023-01-01T02:10:35.141Z,13.25
2023-01-01T02:13:02.551Z,10.40
2023-01-01T02:15:33.066Z,12.43
2023-01-01T02:18:07.766Z,10.55
2023-01-01T02:21:01.127Z,10.35
2023-01-01T02:23:34.246Z,13.20
2023-01-01T02:26:07.570Z,10.48
2023-01-01T02:28:37.605Z,12.05
2023-01-01T02:31:05.104Z,12.60
2023-01-01T02:33:33.129Z,12.05
2023-01-01T02:36:02.485Z,9.55
2023-01-01T02:38:41.474Z,7.75
2023-01-01T02:41:08.726Z,12.52
2023-01-01T02:43:36.515Z,12.15
2023-01-01T02:46:10.496Z,10.13
2023-01-01T02:48:37.861Z,8.07
2023-01-01T02:51:09.387Z,8.50
2023-01-01T02:53:38.375Z,11.38
2023-01-01T02:56:05.654Z,10.68
2023-01-01T02:58:54.729Z,9.32
2023-01-01T03:01:35.384Z,9.70
2023-01-01T03:04:13.061Z,10.35
2023-01-01T03:06:43.708Z,12.32
2023-01-01T03:09:13.616Z,12.13
2023-01-01T03:11:53.266Z,9.27
2023-01-01T03:14:20.593Z,13.23
2023-01-01T03:17:08.231Z,6.15
2023-01-01T03:19:37.924Z,8.95
2023-01-01T03:22:06.831Z,7.35
2023-01-01T03:24:34.020Z,9.70
2023-01-01T03:27:03.745Z,9.35
2023-01-01T03:29:32.747Z,9.48
2023-01-01T03:32:00.864Z,10.00
2023-01-01T03:34:39.454Z,9.90
2023-01-01T03:37:08.835Z,6.78
2023-01-01T03:39:39.018Z,13.95
2023-01-01T03:42:13.608Z,9.13
2023-01-01T03:44:43.898Z,9.10
2023-01-01T03:47:11.313Z,6.18
2023-01-01T03:49:38.619Z,11.40
2023-01-01T03:52:05.839Z,9.93
2023-01-01T03:54:39.238Z,12.15
2023-01-01T03:57:12.360Z,12.75
2023-01-01T03:59:59.860Z,8.95
2023-01-01T04:02:36.630Z,8.43
2023-01-01T04:05:05.149Z,10.90
2023-01-01T04:07:32.713Z,10.03
2023-01-01T04:10:01.744Z,8.90
2023-01-01T04:12:29.628Z,4.30
2023-01-01T04:14:56.809Z,7.80
2023-01-01T04:17:24.297Z,9.93
2023-01-01T04:19:54.989Z,6.53
2023-01-01T04:22:23.560Z,6.25
2023-01-01T04:24:51.041Z,5.78
2023-01-01T04:27:18.220Z,22.27
2023-01-01T04:29:45.461Z,5.13
2023-01-01T04:32:12.717Z,4.13
2023-01-01T04:34:40.204Z,7.45
2023-01-01T04:37:12.931Z,7.45
2023-01-01T04:39:41.192Z,6.20
2023-01-01T04:42:08.434Z,5.22
2023-01-01T04:44:35.696Z,5.88
2023-01-01T04:47:03.042Z,5.97
2023-01-01T04:49:30.511Z,6.28
2023-01-01T04:51:57.746Z,5.97
2023-01-01T04:54:24.975Z,5.97
2023-01-01T04:56:52.209Z,5.90
2023-01-01T04:59:19.469Z,12.65
2023-01-01T05:01:46.819Z,5.85
2023-01-01T05:04:15.000Z,7.55
2023-01-01T05:06:42.223Z,5.53
2023-01-01T05:09:10.484Z,7.55
2023-01-01T05:11:37.983Z,9.25
2023-01-01T05:14:05.249Z,7.15
2023-01-01T05:16:33.863Z,11.73
2023-01-01T05:19:01.381Z,9.43
2023-01-01T05:21:32.157Z,10.45
2023-01-01T05:24:04.935Z,6.63
2023-01-01T05:26:33.360Z,8.98
2023-01-01T05:29:01.111Z,10.13
2023-01-01T05:31:33.416Z,11.85
2023-01-01T05:36:28.995Z,14.13
2023-01-01T05:38:56.948Z,11.65
2023-01-01T05:41:24.506Z,7.10
2023-01-01T05:43:52.497Z,8.63
2023-01-01T05:46:24.409Z,7.85
2023-01-01T05:48:52.285Z,10.70
2023-01-01T05:51:21.208Z,14.15
2023-01-01T05:53:48.673Z,13.40
2023-01-01T05:56:16.970Z,15.40
2023-01-01T05:58:44.385Z,9.20
2023-01-01T06:01:15.750Z,13.00
2023-01-01T06:03:43.836Z,11.18
2023-01-01T06:06:12.966Z,9.48
2023-01-01T06:08:40.578Z,12.50
2023-01-01T06:11:08.913Z,16.25
2023-01-01T06:13:36.212Z,13.60
2023-01-01T06:16:04.108Z,13.52
2023-01-01T06:18:32.552Z,10.30
2023-01-01T06:21:07.497Z,9.13
2023-01-01T06:23:34.884Z,14.57
2023-01-01T06:26:19.247Z,11.77
2023-01-01T06:28:47.292Z,10.18
2023-01-01T06:31:16.360Z,9.57
2023-01-01T06:33:43.915Z,17.52
2023-01-01T06:36:12.168Z,11.73
2023-01-01T06:38:41.533Z,12.35
2023-01-01T06:41:11.326Z,9.55
2023-01-01T06:43:38.863Z,16.63
2023-01-01T06:46:14.946Z,10.65
2023-01-01T06:48:42.534Z,13.68
2023-01-01T06:51:11.349Z,20.17
2023-01-01T06:53:38.878Z,16.25
2023-01-01T06:56:06.628Z,14.25
2023-01-01T06:58:34.121Z,15.90
2023-01-01T07:01:21.008Z,11.13
2023-01-01T07:03:55.930Z,15.65
2023-01-01T07:06:23.719Z,11.20
2023-01-01T07:08:51.241Z,16.45
2023-01-01T07:11:19.009Z,9.73
2023-01-01T07:13:46.484Z,17.58
2023-01-01T07:16:14.002Z,18.38
2023-01-01T07:18:41.636Z,16.98
2023-01-01T07:21:29.577Z,14.32
2023-01-01T07:24:04.760Z,13.13
2023-01-01T07:26:32.978Z,12.38
2023-01-01T07:29:08.588Z,15.30
2023-01-01T07:31:37.439Z,12.30
2023-01-01T07:34:05.592Z,14.02
2023-01-01T07:36:32.922Z,10.98
2023-01-01T07:39:00.243Z,20.52
2023-01-01T07:41:27.538Z,13.95
2023-01-01T07:43:54.808Z,9.35
2023-01-01T07:46:22.262Z,19.00
2023-01-01T07:48:49.603Z,12.90
2023-01-01T07:51:16.933Z,18.77
2023-01-01T07:53:44.404Z,13.57
2023-01-01T07:56:11.708Z,16.17
2023-01-01T07:58:42.607Z,10.93
2023-01-01T08:01:14.581Z,15.60
2023-01-01T08:03:42.015Z,12.30
2023-01-01T08:06:10.011Z,11.13
2023-01-01T08:08:37.393Z,11.20
2023-01-01T08:11:04.721Z,12.13
2023-01-01T08:13:32.028Z,12.77
2023-01-01T08:15:59.772Z,14.75
2023-01-01T08:18:27.157Z,11.80
2023-01-01T08:20:55.292Z,13.35
2023-01-01T08:23:22.620Z,17.27
2023-01-01T08:25:49.839Z,9.63
2023-01-01T08:28:17.048Z,10.88
2023-01-01T08:30:44.402Z,12.63
2023-01-01T08:33:12.277Z,16.88
2023-01-01T08:35:42.085Z,10.57
2023-01-01T08:38:11.642Z,12.43
2023-01-01T08:40:39.220Z,21.88
2023-01-01T08:43:06.490Z,12.13
2023-01-01T08:45:33.938Z,14.60
2023-01-01T08:48:01.434Z,14.30
2023-01-01T08:50:28.716Z,13.30
2023-01-01T08:52:56.068Z,14.13
2023-01-01T08:55:23.423Z,9.60
2023-01-01T08:57:50.617Z,10.43
2023-01-01T09:00:18.236Z,14.27
2023-01-01T09:02:45.569Z,15.05
2023-01-01T09:05:12.998Z,13.25
2023-01-01T09:07:40.443Z,8.88
2023-01-01T09:10:07.971Z,11.52
2023-01-01T09:12:35.629Z,12.68
2023-01-01T09:15:03.771Z,14.20
2023-01-01T09:17:31.083Z,9.82
2023-01-01T09:19:58.404Z,18.13
2023-01-01T09:22:25.897Z,17.05
2023-01-01T09:24:53.155Z,18.70
2023-01-01T09:27:20.458Z,10.13
2023-01-01T09:29:47.791Z,10.57
2023-01-01T09:32:15.030Z,16.98
2023-01-01T09:34:46.009Z,6.65
2023-01-01T09:37:16.034Z,12.05
2023-01-01T09:39:43.294Z,10.55
2023-01-01T09:42:10.537Z,10.18
2023-01-01T09:44:40.815Z,19.08
2023-01-01T09:47:18.212Z,11.02
2023-01-01T09:49:47.417Z,14.68
2023-01-01T09:52:16.610Z,13.38
2023-01-01T09:54:48.390Z,11.15
2023-01-01T09:57:20.239Z,9.63
2023-01-01T09:59:48.086Z,11.00
2023-01-01T10:02:29.354Z,8.40
2023-01-01T10:05:02.738Z,9.68
2023-01-01T10:07:35.718Z,8.95
2023-01-01T10:10:03.126Z,8.90
2023-01-01T10:12:37.444Z,12.23
2023-01-01T10:15:11.016Z,21.15
2023-01-01T10:17:42.015Z,8.73
2023-01-01T10:20:17.992Z,11.75
2023-01-01T10:22:46.775Z,10.70
2023-01-01T10:25:17.077Z,9.38
2023-01-01T10:27:58.895Z,9.40
2023-01-01T10:30:26.894Z,12.70
2023-01-01T10:32:54.984Z,12.40
2023-01-01T10:35:31.243Z,9.88
2023-01-01T10:38:02.712Z,10.35
2023-01-01T10:40:30.543Z,11.98
2023-01-01T10:42:59.047Z,8.20
2023-01-01T10:45:38.448Z,7.88
2023-01-01T10:48:12.080Z,11.80
2023-01-01T10:50:44.978Z,13.55
2023-01-01T10:53:25.200Z,9.98
2023-01-01T10:56:00.329Z,20.75
2023-01-01T10:58:45.989Z,8.40
2023-01-01T11:01:22.109Z,7.28
2023-01-01T11:03:54.754Z,12.10
2023-01-01T11:06:23.323Z,11.95
2023-01-01T11:08:52.909Z,11.60
2023-01-01T11:11:22.278Z,11.85
2023-01-01T11:16:20.072Z,16.08
2023-01-01T11:18:49.702Z,9.55
2023-01-01T11:21:25.673Z,7.82
2023-01-01T11:24:11.989Z,11.50
2023-01-01T11:26:44.318Z,17.90
2023-01-01T11:29:17.302Z,16.40
2023-01-01T11:31:46.217Z,12.40
2023-01-01T11:34:33.876Z,23.23
2023-01-01T11:37:09.272Z,11.70
2023-01-01T11:39:37.937Z,10.27
2023-01-01T11:42:08.371Z,13.52
2023-01-01T11:44:44.757Z,10.00
2023-01-01T11:47:38.357Z,19.55
2023-01-01T11:50:21.430Z,14.40
2023-01-01T11:52:50.864Z,11.20
2023-01-01T11:55:38.625Z,13.15
2023-01-01T11:58:19.979Z,13.15
2023-01-01T12:00:48.571Z,16.38
2023-01-01T12:03:22.265Z,6.27
2023-01-01T12:05:53.541Z,13.88
2023-01-01T12:08:41.644Z,16.42
2023-01-01T12:11:18.121Z,13.60
2023-01-01T12:13:49.696Z,10.13
2023-01-01T12:16:21.867Z,15.10
2023-01-01T12:19:02.830Z,14.02
2023-01-01T12:21:34.838Z,10.25
2023-01-01T12:24:08.333Z,10.73
2023-01-01T12:26:43.313Z,17.98
2023-01-01T12:29:18.628Z,15.32
2023-01-01T12:31:59.229Z,16.08
2023-01-01T12:34:33.230Z,15.15
2023-01-01T12:37:02.009Z,11.95
2023-01-01T12:39:49.022Z,17.35
2023-01-01T12:42:18.303Z,10.40
2023-01-01T12:47:25.398Z,11.27
2023-01-01T12:49:59.757Z,13.95
2023-01-01T12:52:54.099Z,9.30
2023-01-01T12:55:37.746Z,13.95
2023-01-01T12:58:19.972Z,9.85
2023-01-01T13:01:01.866Z,13.43
2023-01-01T13:03:31.145Z,11.82
2023-01-01T13:08:27.738Z,15.23
2023-01-01T13:11:35.649Z,11.13
2023-01-01T13:14:10.300Z,13.45
2023-01-01T13:16:49.079Z,14.80
2023-01-01T13:19:27.616Z,8.27
2023-01-01T13:21:54.892Z,13.02
2023-01-01T13:24:23.401Z,13.23
2023-01-01T13:26:52.431Z,14.68
2023-01-01T13:29:29.087Z,15.02
2023-01-01T13:32:03.001Z,15.57
2023-01-01T13:34:35.737Z,14.60
2023-01-01T13:37:29.667Z,14.07
2023-01-01T13:40:14.034Z,11.60
2023-01-01T13:43:04.771Z,12.63
2023-01-01T13:46:10.653Z,14.90
2023-01-01T13:49:01.649Z,18.73
2023-01-01T13:52:03.503Z,12.38
2023-01-01T13:54:26.817Z,11.43
2023-01-01T13:56:54.164Z,10.57
2023-01-01T13:59:21.425Z,15.82
2023-01-01T14:02:30.104Z,13.18
2023-01-01T14:05:04.915Z,14.02
2023-01-01T14:07:58.940Z,12.30
2023-01-01T14:10:43.926Z,15.68
2023-01-01T14:13:31.172Z,18.73
2023-01-01T14:16:11.491Z,16.33
2023-01-01T14:19:14.563Z,17.95
2023-01-01T14:21:55.463Z,22.70
2023-01-01T14:24:29.205Z,17.98
2023-01-01T14:27:01.686Z,16.38
2023-01-01T14:29:36.564Z,13.70
2023-01-01T14:32:18.464Z,18.17
2023-01-01T14:34:48.368Z,13.82
2023-01-01T14:37:23.629Z,10.85
2023-01-01T14:40:15.236Z,17.00
2023-01-01T14:42:44.592Z,11.35
2023-01-01T14:45:18.951Z,16.88
2023-01-01T14:47:50.512Z,13.82
2023-01-01T14:50:26.386Z,20.38
2023-01-01T14:53:00.288Z,14.75
2023-01-01T14:55:46.012Z,15.35
2023-01-01T14:58:20.946Z,13.65
2023-01-01T15:00:48.705Z,12.43
2023-01-01T15:03:19.494Z,15.43
2023-01-01T15:06:03.316Z,15.43
2023-01-01T15:08:36.785Z,12.23
2023-01-01T15:11:09.526Z,14.30
2023-01-01T15:13:39.751Z,13.68
2023-01-01T15:18:46.511Z,12.13
2023-01-01T15:21:34.830Z,13.13
2023-01-01T15:24:08.002Z,12.68
2023-01-01T15:26:37.898Z,15.23
2023-01-01T15:29:11.411Z,19.52
2023-01-01T15:31:42.091Z,17.50
2023-01-01T15:34:49.676Z,16.17
2023-01-01T15:37:25.055Z,14.27
2023-01-01T15:40:01.456Z,12.50
2023-01-01T15:42:35.755Z,12.60
2023-01-01T15:45:26.187Z,14.82
2023-01-01T15:48:17.587Z,14.88
2023-01-01T15:51:10.636Z,12.27
2023-01-01T15:53:47.780Z,14.90
2023-01-01T15:56:17.491Z,16.08
2023-01-01T15:58:52.490Z,12.13
2023-01-01T16:01:22.088Z,9.80
2023-01-01T16:03:55.035Z,12.50
2023-01-01T16:06:28.239Z,16.80
2023-01-01T16:09:05.873Z,17.75
2023-01-01T16:11:35.193Z,21.05
2023-01-01T16:14:07.153Z,12.43
2023-01-01T16:16:37.864Z,10.73
2023-01-01T16:19:08.186Z,14.77
2023-01-01T16:21:40.375Z,13.25
2023-01-01T16:24:16.704Z,16.23
2023-01-01T16:26:44.586Z,20.48
2023-01-01T16:29:12.997Z,16.42
2023-01-01T16:31:42.383Z,19.63
2023-01-01T16:34:15.293Z,19.52
2023-01-01T16:36:47.093Z,12.57
2023-01-01T16:39:15.826Z,11.77
2023-01-01T16:41:45.173Z,11.68
2023-01-01T16:44:15.196Z,17.42
2023-01-01T16:46:44.790Z,14.10
2023-01-01T16:49:13.606Z,13.93
2023-01-01T16:51:43.978Z,14.52
2023-01-01T16:54:14.045Z,11.85
2023-01-01T16:56:47.372Z,12.43
2023-01-01T16:59:16.589Z,19.98
2023-01-01T17:01:45.560Z,17.75
2023-01-01T17:06:43.610Z,16.50
2023-01-01T17:09:16.351Z,10.50
2023-01-01T17:11:47.589Z,12.60
2023-01-01T17:14:17.295Z,21.38
2023-01-01T17:16:45.451Z,14.93
2023-01-01T17:19:16.298Z,16.67
2023-01-01T17:21:53.508Z,15.98
2023-01-01T17:24:29.572Z,21.58
2023-01-01T17:26:59.215Z,18.17
2023-01-01T17:29:30.072Z,18.05
2023-01-01T17:32:07.319Z,16.50
2023-01-01T17:34:41.344Z,19.42
2023-01-01T17:37:12.824Z,13.32
2023-01-01T17:39:54.048Z,27.67
2023-01-01T17:42:32.248Z,19.52
2023-01-01T17:45:04.704Z,15.98
2023-01-01T17:47:35.922Z,15.45
2023-01-01T17:50:06.685Z,15.45
2023-01-01T17:52:39.579Z,11.27
2023-01-01T17:55:20.640Z,11.68
2023-01-01T17:57:50.103Z,18.23
2023-01-01T18:00:29.791Z,23.23
2023-01-01T18:02:59.921Z,47.53
2023-01-01T18:05:37.808Z,44.28
2023-01-01T18:08:11.557Z,50.63
2023-01-01T18:10:43.131Z,34.78
2023-01-01T18:13:13.663Z,47.17
2023-01-01T18:15:43.425Z,19.42
2023-01-01T18:18:18.827Z,20.85
2023-01-01T18:21:02.414Z,21.10
2023-01-01T18:23:40.211Z,25.35
2023-01-01T18:26:12.696Z,20.92
2023-01-01T18:28:41.475Z,19.20
2023-01-01T18:31:10.646Z,17.10
2023-01-01T18:33:55.410Z,17.67
2023-01-01T18:36:28.606Z,20.27
2023-01-01T18:39:10.888Z,9.57
2023-01-01T18:41:59.431Z,17.80
2023-01-01T18:44:31.618Z,17.77
2023-01-01T18:47:04.513Z,20.27
2023-01-01T18:49:34.203Z,29.95
2023-01-01T18:54:36.262Z,21.73
2023-01-01T18:57:14.802Z,22.58
2023-01-01T18:59:49.744Z,20.15
2023-01-01T19:02:42.468Z,18.33
2023-01-01T19:05:20.141Z,19.90
2023-01-01T19:07:55.864Z,14.07
2023-01-01T19:10:29.228Z,20.02
2023-01-01T19:12:58.726Z,23.23
2023-01-01T19:15:29.952Z,16.38
2023-01-01T19:18:02.846Z,19.73
2023-01-01T19:20:43.736Z,12.38
2023-01-01T19:23:17.537Z,16.65
2023-01-01T19:25:47.342Z,13.43
2023-01-01T19:28:18.200Z,20.10
2023-01-01T19:30:48.454Z,27.58
2023-01-01T19:33:19.663Z,12.02
2023-01-01T19:35:48.719Z,16.23
2023-01-01T19:38:19.062Z,16.17
2023-01-01T19:40:47.102Z,15.18
2023-01-01T19:43:15.643Z,22.67
2023-01-01T19:45:45.171Z,13.05
2023-01-01T19:50:45.312Z,18.23
2023-01-01T19:53:14.984Z,14.35
2023-01-01T19:55:47.813Z,19.38
2023-01-01T19:58:17.846Z,13.48
2023-01-01T20:00:49.032Z,17.33
2023-01-01T20:03:52.094Z,18.10
2023-01-01T20:06:10.914Z,35.67
2023-01-01T20:08:38.587Z,32.47
2023-01-01T20:11:08.161Z,24.20
2023-01-01T20:13:37.847Z,26.05
2023-01-01T20:16:06.676Z,23.23
2023-01-01T20:18:37.224Z,18.70
2023-01-01T20:21:33.131Z,16.10
2023-01-01T20:24:01.431Z,16.40
2023-01-01T20:26:30.280Z,20.25
2023-01-01T20:29:17.277Z,15.30
2023-01-01T20:31:49.915Z,15.43
2023-01-01T20:34:22.334Z,12.48
2023-01-01T20:37:12.994Z,11.45
2023-01-01T20:39:42.892Z,12.68
2023-01-01T20:42:11.724Z,11.38
2023-01-01T20:44:44.788Z,12.35
2023-01-01T20:47:15.936Z,12.07
2023-01-01T20:49:45.539Z,10.40
2023-01-01T20:52:14.415Z,12.35
2023-01-01T20:54:43.589Z,13.10
2023-01-01T20:57:11.898Z,9.88
2023-01-01T20:59:45.876Z,11.45
2023-01-01T21:02:13.814Z,11.45
2023-01-01T21:04:41.228Z,11.23
2023-01-01T21:07:10.796Z,11.20
2023-01-01T21:09:41.062Z,13.13
2023-01-01T21:12:11.102Z,10.23
2023-01-01T21:14:39.651Z,18.55
2023-01-01T21:17:20.129Z,14.98
2023-01-01T21:19:52.801Z,11.55
2023-01-01T21:22:34.560Z,11.27
2023-01-01T21:25:48.712Z,16.33
2023-01-01T21:27:58.514Z,13.02
2023-01-01T21:30:33.620Z,12.45
2023-01-01T21:33:13.756Z,13.38
2023-01-01T21:36:35.475Z,13.85
2023-01-01T21:39:06.796Z,15.37
2023-01-01T21:42:09.197Z,15.20
2023-01-01T21:44:47.178Z,15.30
2023-01-01T21:47:33.480Z,17.27
2023-01-01T21:50:06.670Z,15.30
2023-01-01T21:55:54.591Z,15.90
2023-01-01T21:59:04.249Z,15.30
2023-01-01T22:01:38.680Z,14.43
2023-01-01T22:06:41.114Z,13.25
2023-01-01T22:09:26.707Z,14.60
2023-01-01T22:11:58.845Z,13.95
2023-01-01T22:14:31.459Z,15.93
2023-01-01T22:17:03.543Z,15.10
2023-01-01T22:19:35.353Z,18.95
2023-01-01T22:22:19.875Z,15.88
2023-01-01T22:25:26.196Z,15.63
2023-01-01T22:28:09.604Z,12.55
2023-01-01T22:30:54.555Z,19.95
2023-01-01T22:35:25.029Z,18.08
2023-01-01T22:38:24.287Z,16.20
2023-01-01T22:40:53.184Z,17.05
2023-01-01T22:43:27.142Z,18.65
2023-01-01T22:45:57.173Z,22.83
2023-01-01T22:48:36.469Z,20.65
2023-01-01T22:53:32.986Z,17.10
2023-01-01T22:56:05.233Z,18.30
2023-01-01T22:58:38.147Z,20.58
2023-01-01T23:01:07.356Z,19.23
2023-01-01T23:03:38.046Z,25.58
2023-01-01T23:06:11.699Z,19.83
2023-01-01T23:08:41.940Z,22.98
2023-01-01T23:11:17.715Z,21.15
2023-01-01T23:14:11.235Z,22.77
2023-01-01T23:16:40.178Z,21.38
2023-01-01T23:19:13.638Z,19.80
2023-01-01T23:21:44.223Z,20.88
2023-01-01T23:24:20.328Z,21.00
2023-01-01T23:26:52.390Z,28.48
2023-01-01T23:29:25.076Z,26.20
2023-01-01T23:31:54.565Z,26.58
2023-01-01T23:37:00.822Z,21.02
2023-01-01T23:39:32.865Z,22.95
2023-01-01T23:42:02.580Z,20.20
2023-01-01T23:44:30.703Z,22.38
2023-01-01T23:46:58.764Z,19.05
2023-01-01T23:49:26.222Z,20.60
2023-01-01T23:51:54.201Z,20.70
2023-01-01T23:54:21.485Z,22.63
2023-01-01T23:56:48.812Z,22.73
2023-01-01T23:59:16.013Z,22.17
